sensor_id;sensor_type;location;lat;lon;timestamp;temperature;humidity
4604;DHT22;2314;48.272;11.562;2022-09-27T00:00:38;11.20;99.90
4604;DHT22;2314;48.272;11.562;2022-09-27T00:03:07;11.10;99.90
4604;DHT22;2314;48.272;11.562;2022-09-27T00:05:34;11.10;99.90
4604;DHT22;2314;48.272;11.562;2022-09-27T00:08:02;11.00;99.90
4604;DHT22;2314;48.272;11.562;2022-09-27T00:10:29;10.90;99.90
4604;DHT22;2314;48.272;11.562;2022-09-27T00:12:57;10.90;99.90
4604;DHT22;2314;48.272;11.562;2022-09-27T00:15:24;10.70;99.90
4604;DHT22;2314;48.272;11.562;2022-09-27T00:17:53;10.70;99.90
4604;DHT22;2314;48.272;11.562;2022-09-27T00:20:20;10.70;99.90
4604;DHT22;2314;48.272;11.562;2022-09-27T00:22:48;10.60;99.90
4604;DHT22;2314;48.272;11.562;2022-09-27T00:25:16;10.50;99.90
4604;DHT22;2314;48.272;11.562;2022-09-27T00:27:43;10.50;99.90
4604;DHT22;2314;48.272;11.562;2022-09-27T00:30:11;10.50;99.90
4604;DHT22;2314;48.272;11.562;2022-09-27T00:32:39;10.50;99.90
4604;DHT22;2314;48.272;11.562;2022-09-27T00:35:08;10.40;99.90
4604;DHT22;2314;48.272;11.562;2022-09-27T00:37:35;10.40;99.90
4604;DHT22;2314;48.272;11.562;2022-09-27T00:40:03;10.40;99.90
4604;DHT22;2314;48.272;11.562;2022-09-27T00:42:30;10.40;99.90
4604;DHT22;2314;48.272;11.562;2022-09-27T00:45:08;10.40;99.90
4604;DHT22;2314;48.272;11.562;2022-09-27T00:47:42;10.40;99.90
4604;DHT22;2314;48.272;11.562;2022-09-27T00:50:23;10.40;99.90
4604;DHT22;2314;48.272;11.562;2022-09-27T00:53:02;10.40;99.90
4604;DHT22;2314;48.272;11.562;2022-09-27T00:55:35;10.30;99.90
4604;DHT22;2314;48.272;11.562;2022-09-27T00:58:05;10.30;99.90
4604;DHT22;2314;48.272;11.562;2022-09-27T01:00:33;10.30;99.90
4604;DHT22;2314;48.272;11.562;2022-09-27T01:03:05;10.30;99.90
4604;DHT22;2314;48.272;11.562;2022-09-27T01:05:35;10.30;99.90
4604;DHT22;2314;48.272;11.562;2022-09-27T01:08:02;10.30;99.90
4604;DHT22;2314;48.272;11.562;2022-09-27T01:10:39;10.30;99.90
4604;DHT22;2314;48.272;11.562;2022-09-27T01:13:15;10.20;99.90
4604;DHT22;2314;48.272;11.562;2022-09-27T01:15:52;10.20;99.90
4604;DHT22;2314;48.272;11.562;2022-09-27T01:18:30;10.20;99.90
4604;DHT22;2314;48.272;11.562;2022-09-27T01:21:21;10.20;99.90
4604;DHT22;2314;48.272;11.562;2022-09-27T01:24:13;10.10;99.90
4604;DHT22;2314;48.272;11.562;2022-09-27T01:30:40;10.10;99.90
4604;DHT22;2314;48.272;11.562;2022-09-27T01:33:24;10.10;99.90
4604;DHT22;2314;48.272;11.562;2022-09-27T01:36:07;10.10;99.90
4604;DHT22;2314;48.272;11.562;2022-09-27T01:38:47;10.10;99.90
4604;DHT22;2314;48.272;11.562;2022-09-27T01:41:35;10.10;99.90
4604;DHT22;2314;48.272;11.562;2022-09-27T01:44:08;10.10;99.90
4604;DHT22;2314;48.272;11.562;2022-09-27T01:46:41;10.10;99.90
4604;DHT22;2314;48.272;11.562;2022-09-27T01:49:15;10.10;99.90
4604;DHT22;2314;48.272;11.562;2022-09-27T01:51:46;10.10;99.90
4604;DHT22;2314;48.272;11.562;2022-09-27T01:54:24;10.10;99.90
4604;DHT22;2314;48.272;11.562;2022-09-27T01:56:56;10.10;99.90
4604;DHT22;2314;48.272;11.562;2022-09-27T01:59:27;10.20;99.90
4604;DHT22;2314;48.272;11.562;2022-09-27T02:02:02;10.20;99.90
4604;DHT22;2314;48.272;11.562;2022-09-27T02:04:34;10.10;99.90
4604;DHT22;2314;48.272;11.562;2022-09-27T02:07:09;10.20;99.90
4604;DHT22;2314;48.272;11.562;2022-09-27T02:09:41;10.10;99.90
4604;DHT22;2314;48.272;11.562;2022-09-27T02:12:14;10.20;99.90
4604;DHT22;2314;48.272;11.562;2022-09-27T02:14:48;10.20;99.90
4604;DHT22;2314;48.272;11.562;2022-09-27T02:17:27;10.10;99.90
4604;DHT22;2314;48.272;11.562;2022-09-27T02:20:02;10.10;99.90
4604;DHT22;2314;48.272;11.562;2022-09-27T02:22:35;10.00;99.90
4604;DHT22;2314;48.272;11.562;2022-09-27T02:25:10;9.90;99.90
4604;DHT22;2314;48.272;11.562;2022-09-27T02:27:49;9.80;99.90
4604;DHT22;2314;48.272;11.562;2022-09-27T02:30:21;9.80;99.90
4604;DHT22;2314;48.272;11.562;2022-09-27T02:32:50;9.70;99.90
4604;DHT22;2314;48.272;11.562;2022-09-27T02:35:21;9.70;99.90
4604;DHT22;2314;48.272;11.562;2022-09-27T02:37:51;9.70;99.90
4604;DHT22;2314;48.272;11.562;2022-09-27T02:40:19;9.60;99.90
4604;DHT22;2314;48.272;11.562;2022-09-27T02:42:46;9.60;99.90
4604;DHT22;2314;48.272;11.562;2022-09-27T02:45:15;9.60;99.90
4604;DHT22;2314;48.272;11.562;2022-09-27T02:47:59;9.60;99.90
4604;DHT22;2314;48.272;11.562;2022-09-27T02:50:48;9.60;99.90
4604;DHT22;2314;48.272;11.562;2022-09-27T02:53:35;9.50;99.90
4604;DHT22;2314;48.272;11.562;2022-09-27T02:56:11;9.60;99.90
4604;DHT22;2314;48.272;11.562;2022-09-27T02:58:50;9.60;99.90
4604;DHT22;2314;48.272;11.562;2022-09-27T03:01:28;9.60;99.90
4604;DHT22;2314;48.272;11.562;2022-09-27T03:04:05;9.60;99.90
4604;DHT22;2314;48.272;11.562;2022-09-27T03:06:36;9.60;99.90
4604;DHT22;2314;48.272;11.562;2022-09-27T03:09:04;9.60;99.90
4604;DHT22;2314;48.272;11.562;2022-09-27T03:11:31;9.60;99.90
4604;DHT22;2314;48.272;11.562;2022-09-27T03:13:59;9.60;99.90
4604;DHT22;2314;48.272;11.562;2022-09-27T03:16:26;9.60;99.90
4604;DHT22;2314;48.272;11.562;2022-09-27T03:18:53;9.60;99.90
4604;DHT22;2314;48.272;11.562;2022-09-27T03:21:21;9.60;99.90
4604;DHT22;2314;48.272;11.562;2022-09-27T03:23:48;9.60;99.90
4604;DHT22;2314;48.272;11.562;2022-09-27T03:26:15;9.60;99.90
4604;DHT22;2314;48.272;11.562;2022-09-27T03:28:42;9.60;99.90
4604;DHT22;2314;48.272;11.562;2022-09-27T03:31:10;9.60;99.90
4604;DHT22;2314;48.272;11.562;2022-09-27T03:33:37;9.60;99.90
4604;DHT22;2314;48.272;11.562;2022-09-27T03:36:04;9.60;99.90
4604;DHT22;2314;48.272;11.562;2022-09-27T03:38:33;9.60;99.90
4604;DHT22;2314;48.272;11.562;2022-09-27T03:41:00;9.60;99.90
4604;DHT22;2314;48.272;11.562;2022-09-27T03:43:27;9.60;99.90
4604;DHT22;2314;48.272;11.562;2022-09-27T03:45:54;9.60;99.90
4604;DHT22;2314;48.272;11.562;2022-09-27T03:48:21;9.60;99.90
4604;DHT22;2314;48.272;11.562;2022-09-27T03:50:50;9.60;99.90
4604;DHT22;2314;48.272;11.562;2022-09-27T03:53:17;9.60;99.90
4604;DHT22;2314;48.272;11.562;2022-09-27T03:55:46;9.50;99.90
4604;DHT22;2314;48.272;11.562;2022-09-27T03:58:13;9.50;99.90
4604;DHT22;2314;48.272;11.562;2022-09-27T04:00:41;9.50;99.90
4604;DHT22;2314;48.272;11.562;2022-09-27T04:03:08;9.60;99.90
4604;DHT22;2314;48.272;11.562;2022-09-27T04:05:36;9.50;99.90
4604;DHT22;2314;48.272;11.562;2022-09-27T04:08:03;9.50;99.90
4604;DHT22;2314;48.272;11.562;2022-09-27T04:10:32;9.60;99.90
4604;DHT22;2314;48.272;11.562;2022-09-27T04:13:00;9.50;99.90
4604;DHT22;2314;48.272;11.562;2022-09-27T04:15:28;9.60;99.90
4604;DHT22;2314;48.272;11.562;2022-09-27T04:17:55;9.60;99.90
4604;DHT22;2314;48.272;11.562;2022-09-27T04:20:22;9.60;99.90
4604;DHT22;2314;48.272;11.562;2022-09-27T04:22:49;9.60;99.90
4604;DHT22;2314;48.272;11.562;2022-09-27T04:25:16;9.60;99.90
4604;DHT22;2314;48.272;11.562;2022-09-27T04:27:44;9.60;99.90
4604;DHT22;2314;48.272;11.562;2022-09-27T04:30:13;9.60;99.90
4604;DHT22;2314;48.272;11.562;2022-09-27T04:32:41;9.60;99.90
4604;DHT22;2314;48.272;11.562;2022-09-27T04:35:09;9.60;99.90
4604;DHT22;2314;48.272;11.562;2022-09-27T04:37:54;9.60;99.90
4604;DHT22;2314;48.272;11.562;2022-09-27T04:40:21;9.60;99.90
4604;DHT22;2314;48.272;11.562;2022-09-27T04:42:49;9.60;99.90
4604;DHT22;2314;48.272;11.562;2022-09-27T04:45:18;9.60;99.90
4604;DHT22;2314;48.272;11.562;2022-09-27T04:47:46;9.60;99.90
4604;DHT22;2314;48.272;11.562;2022-09-27T04:50:15;9.60;99.90
4604;DHT22;2314;48.272;11.562;2022-09-27T04:52:44;9.60;99.90
4604;DHT22;2314;48.272;11.562;2022-09-27T04:55:16;9.50;99.90
4604;DHT22;2314;48.272;11.562;2022-09-27T04:57:43;9.50;99.90
4604;DHT22;2314;48.272;11.562;2022-09-27T05:00:11;9.50;99.90
4604;DHT22;2314;48.272;11.562;2022-09-27T05:02:41;9.50;99.90
4604;DHT22;2314;48.272;11.562;2022-09-27T05:05:09;9.50;99.90
4604;DHT22;2314;48.272;11.562;2022-09-27T05:07:37;9.50;99.90
4604;DHT22;2314;48.272;11.562;2022-09-27T05:10:05;9.50;99.90
4604;DHT22;2314;48.272;11.562;2022-09-27T05:12:33;9.50;99.90
4604;DHT22;2314;48.272;11.562;2022-09-27T05:15:01;9.50;99.90
4604;DHT22;2314;48.272;11.562;2022-09-27T05:17:28;9.40;99.90
4604;DHT22;2314;48.272;11.562;2022-09-27T05:19:57;9.40;99.90
4604;DHT22;2314;48.272;11.562;2022-09-27T05:22:24;9.50;99.90
4604;DHT22;2314;48.272;11.562;2022-09-27T05:24:51;9.50;99.90
4604;DHT22;2314;48.272;11.562;2022-09-27T05:27:18;9.50;99.90
4604;DHT22;2314;48.272;11.562;2022-09-27T05:29:46;9.50;99.90
4604;DHT22;2314;48.272;11.562;2022-09-27T05:32:13;9.50;99.90
4604;DHT22;2314;48.272;11.562;2022-09-27T05:34:41;9.60;99.90
4604;DHT22;2314;48.272;11.562;2022-09-27T05:37:09;9.60;99.90
4604;DHT22;2314;48.272;11.562;2022-09-27T05:39:37;9.60;99.90
4604;DHT22;2314;48.272;11.562;2022-09-27T05:42:05;9.60;99.90
4604;DHT22;2314;48.272;11.562;2022-09-27T05:44:34;9.60;99.90
4604;DHT22;2314;48.272;11.562;2022-09-27T05:47:03;9.60;99.90
4604;DHT22;2314;48.272;11.562;2022-09-27T05:49:30;9.50;99.90
4604;DHT22;2314;48.272;11.562;2022-09-27T05:51:58;9.50;99.90
4604;DHT22;2314;48.272;11.562;2022-09-27T05:54:27;9.50;99.90
4604;DHT22;2314;48.272;11.562;2022-09-27T05:56:55;9.40;99.90
4604;DHT22;2314;48.272;11.562;2022-09-27T05:59:24;9.40;99.90
4604;DHT22;2314;48.272;11.562;2022-09-27T06:01:52;9.40;99.90
4604;DHT22;2314;48.272;11.562;2022-09-27T06:04:20;9.40;99.90
4604;DHT22;2314;48.272;11.562;2022-09-27T06:06:47;9.30;99.90
4604;DHT22;2314;48.272;11.562;2022-09-27T06:09:20;9.40;99.90
4604;DHT22;2314;48.272;11.562;2022-09-27T06:11:52;9.40;99.90
4604;DHT22;2314;48.272;11.562;2022-09-27T06:14:20;9.50;99.90
4604;DHT22;2314;48.272;11.562;2022-09-27T06:16:47;9.60;99.90
4604;DHT22;2314;48.272;11.562;2022-09-27T06:19:14;9.60;99.90
4604;DHT22;2314;48.272;11.562;2022-09-27T06:21:42;9.70;99.90
4604;DHT22;2314;48.272;11.562;2022-09-27T06:24:09;9.70;99.90
4604;DHT22;2314;48.272;11.562;2022-09-27T06:26:37;9.70;99.90
4604;DHT22;2314;48.272;11.562;2022-09-27T06:29:05;9.70;99.90
4604;DHT22;2314;48.272;11.562;2022-09-27T06:31:32;9.60;99.90
4604;DHT22;2314;48.272;11.562;2022-09-27T06:34:00;9.60;99.90
4604;DHT22;2314;48.272;11.562;2022-09-27T06:36:27;9.60;99.90
4604;DHT22;2314;48.272;11.562;2022-09-27T06:38:54;9.60;99.90
4604;DHT22;2314;48.272;11.562;2022-09-27T06:41:21;9.50;99.90
4604;DHT22;2314;48.272;11.562;2022-09-27T06:43:48;9.50;99.90
4604;DHT22;2314;48.272;11.562;2022-09-27T06:46:17;9.60;99.90
4604;DHT22;2314;48.272;11.562;2022-09-27T06:48:45;9.60;99.90
4604;DHT22;2314;48.272;11.562;2022-09-27T06:51:12;9.60;99.90
4604;DHT22;2314;48.272;11.562;2022-09-27T06:53:40;9.70;99.90
4604;DHT22;2314;48.272;11.562;2022-09-27T06:56:07;9.70;99.90
4604;DHT22;2314;48.272;11.562;2022-09-27T06:58:38;9.70;99.90
4604;DHT22;2314;48.272;11.562;2022-09-27T07:01:28;9.70;99.90
4604;DHT22;2314;48.272;11.562;2022-09-27T07:03:55;9.80;99.90
4604;DHT22;2314;48.272;11.562;2022-09-27T07:06:24;10.00;99.90
4604;DHT22;2314;48.272;11.562;2022-09-27T07:08:52;10.20;99.90
4604;DHT22;2314;48.272;11.562;2022-09-27T07:11:20;10.30;99.90
4604;DHT22;2314;48.272;11.562;2022-09-27T07:13:48;10.30;99.90
4604;DHT22;2314;48.272;11.562;2022-09-27T07:16:16;10.40;99.90
4604;DHT22;2314;48.272;11.562;2022-09-27T07:18:47;10.50;99.90
4604;DHT22;2314;48.272;11.562;2022-09-27T07:21:14;10.50;99.90
4604;DHT22;2314;48.272;11.562;2022-09-27T07:23:41;10.40;99.90
4604;DHT22;2314;48.272;11.562;2022-09-27T07:26:09;10.50;99.90
4604;DHT22;2314;48.272;11.562;2022-09-27T07:28:37;10.50;99.90
4604;DHT22;2314;48.272;11.562;2022-09-27T07:31:07;10.50;99.90
4604;DHT22;2314;48.272;11.562;2022-09-27T07:33:34;10.50;99.90
4604;DHT22;2314;48.272;11.562;2022-09-27T07:36:07;10.90;99.90
4604;DHT22;2314;48.272;11.562;2022-09-27T07:38:36;11.20;99.90
4604;DHT22;2314;48.272;11.562;2022-09-27T07:41:07;11.40;99.90
4604;DHT22;2314;48.272;11.562;2022-09-27T07:43:35;11.40;99.90
4604;DHT22;2314;48.272;11.562;2022-09-27T07:46:02;11.30;99.90
4604;DHT22;2314;48.272;11.562;2022-09-27T07:48:29;11.10;99.90
4604;DHT22;2314;48.272;11.562;2022-09-27T07:50:56;10.90;99.90
4604;DHT22;2314;48.272;11.562;2022-09-27T07:53:25;10.80;99.90
4604;DHT22;2314;48.272;11.562;2022-09-27T07:55:53;10.70;99.90
4604;DHT22;2314;48.272;11.562;2022-09-27T07:58:20;10.30;99.90
4604;DHT22;2314;48.272;11.562;2022-09-27T08:00:47;9.90;99.90
4604;DHT22;2314;48.272;11.562;2022-09-27T08:03:16;9.40;99.90
4604;DHT22;2314;48.272;11.562;2022-09-27T08:05:44;8.90;99.90
4604;DHT22;2314;48.272;11.562;2022-09-27T08:08:12;8.50;99.90
4604;DHT22;2314;48.272;11.562;2022-09-27T08:10:41;8.40;99.90
4604;DHT22;2314;48.272;11.562;2022-09-27T08:13:11;8.30;99.90
4604;DHT22;2314;48.272;11.562;2022-09-27T08:15:39;8.30;99.90
4604;DHT22;2314;48.272;11.562;2022-09-27T08:18:06;8.40;99.90
4604;DHT22;2314;48.272;11.562;2022-09-27T08:20:34;8.50;99.90
4604;DHT22;2314;48.272;11.562;2022-09-27T08:23:01;8.60;99.90
4604;DHT22;2314;48.272;11.562;2022-09-27T08:25:29;8.60;99.90
4604;DHT22;2314;48.272;11.562;2022-09-27T08:28:00;8.80;99.90
4604;DHT22;2314;48.272;11.562;2022-09-27T08:30:29;9.20;99.90
4604;DHT22;2314;48.272;11.562;2022-09-27T08:32:58;9.30;99.90
4604;DHT22;2314;48.272;11.562;2022-09-27T08:35:27;9.40;99.90
4604;DHT22;2314;48.272;11.562;2022-09-27T08:37:56;9.40;99.90
4604;DHT22;2314;48.272;11.562;2022-09-27T08:40:29;9.40;99.90
4604;DHT22;2314;48.272;11.562;2022-09-27T08:43:11;9.30;99.90
4604;DHT22;2314;48.272;11.562;2022-09-27T08:45:54;9.30;99.90
4604;DHT22;2314;48.272;11.562;2022-09-27T08:48:26;9.40;99.90
4604;DHT22;2314;48.272;11.562;2022-09-27T08:51:00;9.40;99.90
4604;DHT22;2314;48.272;11.562;2022-09-27T08:53:32;9.30;99.90
4604;DHT22;2314;48.272;11.562;2022-09-27T08:56:02;9.40;99.90
4604;DHT22;2314;48.272;11.562;2022-09-27T08:58:38;9.50;99.90
4604;DHT22;2314;48.272;11.562;2022-09-27T09:01:13;9.70;99.90
4604;DHT22;2314;48.272;11.562;2022-09-27T09:03:45;9.80;99.90
4604;DHT22;2314;48.272;11.562;2022-09-27T09:06:19;9.90;99.90
4604;DHT22;2314;48.272;11.562;2022-09-27T09:09:02;10.00;99.90
4604;DHT22;2314;48.272;11.562;2022-09-27T09:11:41;10.10;99.90
4604;DHT22;2314;48.272;11.562;2022-09-27T09:14:49;10.30;99.90
4604;DHT22;2314;48.272;11.562;2022-09-27T09:17:38;10.30;99.90
4604;DHT22;2314;48.272;11.562;2022-09-27T09:20:27;10.40;99.90
4604;DHT22;2314;48.272;11.562;2022-09-27T09:23:24;10.50;99.90
4604;DHT22;2314;48.272;11.562;2022-09-27T09:26:03;10.50;99.90
4604;DHT22;2314;48.272;11.562;2022-09-27T09:28:47;10.50;99.90
4604;DHT22;2314;48.272;11.562;2022-09-27T09:31:30;10.50;99.90
4604;DHT22;2314;48.272;11.562;2022-09-27T09:34:08;10.30;99.90
4604;DHT22;2314;48.272;11.562;2022-09-27T09:36:43;10.10;99.90
4604;DHT22;2314;48.272;11.562;2022-09-27T09:39:16;10.10;99.90
4604;DHT22;2314;48.272;11.562;2022-09-27T09:41:56;10.20;99.90
4604;DHT22;2314;48.272;11.562;2022-09-27T09:44:40;10.20;99.90
4604;DHT22;2314;48.272;11.562;2022-09-27T09:47:17;9.90;99.90
4604;DHT22;2314;48.272;11.562;2022-09-27T09:49:53;9.80;99.90
4604;DHT22;2314;48.272;11.562;2022-09-27T09:52:26;9.80;99.90
4604;DHT22;2314;48.272;11.562;2022-09-27T09:55:03;9.90;99.90
4604;DHT22;2314;48.272;11.562;2022-09-27T09:57:37;10.20;99.90
4604;DHT22;2314;48.272;11.562;2022-09-27T10:00:13;10.50;99.90
4604;DHT22;2314;48.272;11.562;2022-09-27T10:02:44;10.50;99.90
4604;DHT22;2314;48.272;11.562;2022-09-27T10:05:14;10.50;99.90
4604;DHT22;2314;48.272;11.562;2022-09-27T10:07:43;10.40;99.90
4604;DHT22;2314;48.272;11.562;2022-09-27T10:10:13;10.20;99.90
4604;DHT22;2314;48.272;11.562;2022-09-27T10:12:41;10.20;99.90
4604;DHT22;2314;48.272;11.562;2022-09-27T10:15:13;10.30;99.90
4604;DHT22;2314;48.272;11.562;2022-09-27T10:17:47;10.30;99.90
4604;DHT22;2314;48.272;11.562;2022-09-27T10:20:27;10.50;99.90
4604;DHT22;2314;48.272;11.562;2022-09-27T10:23:03;11.00;99.90
4604;DHT22;2314;48.272;11.562;2022-09-27T10:25:49;11.20;99.90
4604;DHT22;2314;48.272;11.562;2022-09-27T10:28:40;11.30;99.90
4604;DHT22;2314;48.272;11.562;2022-09-27T10:31:11;11.10;99.90
4604;DHT22;2314;48.272;11.562;2022-09-27T10:33:52;11.00;99.90
4604;DHT22;2314;48.272;11.562;2022-09-27T10:36:23;11.10;99.90
4604;DHT22;2314;48.272;11.562;2022-09-27T10:38:52;11.30;99.90
4604;DHT22;2314;48.272;11.562;2022-09-27T10:41:23;11.30;99.90
4604;DHT22;2314;48.272;11.562;2022-09-27T10:43:53;11.30;99.90
4604;DHT22;2314;48.272;11.562;2022-09-27T10:46:25;11.30;99.90
4604;DHT22;2314;48.272;11.562;2022-09-27T10:49:16;11.20;99.90
4604;DHT22;2314;48.272;11.562;2022-09-27T10:51:48;11.40;99.90
4604;DHT22;2314;48.272;11.562;2022-09-27T10:54:19;11.40;99.90
4604;DHT22;2314;48.272;11.562;2022-09-27T10:56:54;11.40;99.90
4604;DHT22;2314;48.272;11.562;2022-09-27T10:59:23;11.50;99.90
4604;DHT22;2314;48.272;11.562;2022-09-27T11:01:51;11.60;99.90
4604;DHT22;2314;48.272;11.562;2022-09-27T11:04:24;12.20;99.90
4604;DHT22;2314;48.272;11.562;2022-09-27T11:07:06;12.50;99.90
4604;DHT22;2314;48.272;11.562;2022-09-27T11:09:45;12.10;99.90
4604;DHT22;2314;48.272;11.562;2022-09-27T11:12:15;11.90;99.90
4604;DHT22;2314;48.272;11.562;2022-09-27T11:14:52;11.60;99.90
4604;DHT22;2314;48.272;11.562;2022-09-27T11:17:26;11.50;99.90
4604;DHT22;2314;48.272;11.562;2022-09-27T11:20:16;11.40;99.90
4604;DHT22;2314;48.272;11.562;2022-09-27T11:23:19;10.90;99.90
4604;DHT22;2314;48.272;11.562;2022-09-27T11:29:16;11.10;99.90
4604;DHT22;2314;48.272;11.562;2022-09-27T11:32:03;11.20;99.90
4604;DHT22;2314;48.272;11.562;2022-09-27T11:34:47;11.50;99.90
4604;DHT22;2314;48.272;11.562;2022-09-27T11:37:29;12.20;99.90
4604;DHT22;2314;48.272;11.562;2022-09-27T11:40:09;12.60;99.90
4604;DHT22;2314;48.272;11.562;2022-09-27T11:43:06;12.80;99.90
4604;DHT22;2314;48.272;11.562;2022-09-27T11:45:48;13.10;99.90
4604;DHT22;2314;48.272;11.562;2022-09-27T11:48:28;12.90;99.90
4604;DHT22;2314;48.272;11.562;2022-09-27T11:51:21;12.50;99.90
4604;DHT22;2314;48.272;11.562;2022-09-27T11:54:04;12.10;99.90
4604;DHT22;2314;48.272;11.562;2022-09-27T11:56:46;10.50;99.90
4604;DHT22;2314;48.272;11.562;2022-09-27T11:59:37;9.50;99.90
4604;DHT22;2314;48.272;11.562;2022-09-27T12:02:23;9.00;99.90
4604;DHT22;2314;48.272;11.562;2022-09-27T12:05:11;8.80;99.90
4604;DHT22;2314;48.272;11.562;2022-09-27T12:07:51;8.70;99.90
4604;DHT22;2314;48.272;11.562;2022-09-27T12:10:26;8.70;99.90
4604;DHT22;2314;48.272;11.562;2022-09-27T12:12:56;8.60;99.90
4604;DHT22;2314;48.272;11.562;2022-09-27T12:15:26;8.70;99.90
4604;DHT22;2314;48.272;11.562;2022-09-27T12:18:02;8.80;99.90
4604;DHT22;2314;48.272;11.562;2022-09-27T12:20:36;8.80;99.90
4604;DHT22;2314;48.272;11.562;2022-09-27T12:23:10;8.90;99.90
4604;DHT22;2314;48.272;11.562;2022-09-27T12:25:44;9.00;99.90
4604;DHT22;2314;48.272;11.562;2022-09-27T12:28:20;9.60;99.90
4604;DHT22;2314;48.272;11.562;2022-09-27T12:30:56;9.90;99.90
4604;DHT22;2314;48.272;11.562;2022-09-27T12:33:31;9.90;99.90
4604;DHT22;2314;48.272;11.562;2022-09-27T12:36:05;9.80;99.90
4604;DHT22;2314;48.272;11.562;2022-09-27T12:38:39;9.90;99.90
4604;DHT22;2314;48.272;11.562;2022-09-27T12:41:13;10.00;99.90
4604;DHT22;2314;48.272;11.562;2022-09-27T12:43:45;10.10;99.90
4604;DHT22;2314;48.272;11.562;2022-09-27T12:46:20;10.60;99.90
4604;DHT22;2314;48.272;11.562;2022-09-27T12:48:55;11.00;99.90
4604;DHT22;2314;48.272;11.562;2022-09-27T12:51:32;11.20;99.90
4604;DHT22;2314;48.272;11.562;2022-09-27T12:54:21;11.50;99.90
4604;DHT22;2314;48.272;11.562;2022-09-27T12:57:01;11.50;99.90
4604;DHT22;2314;48.272;11.562;2022-09-27T12:59:59;11.50;99.90
4604;DHT22;2314;48.272;11.562;2022-09-27T13:02:59;11.70;99.90
4604;DHT22;2314;48.272;11.562;2022-09-27T13:06:03;11.30;99.90
4604;DHT22;2314;48.272;11.562;2022-09-27T13:12:09;10.90;99.90
4604;DHT22;2314;48.272;11.562;2022-09-27T13:14:42;10.90;99.90
4604;DHT22;2314;48.272;11.562;2022-09-27T13:17:52;10.90;99.90
4604;DHT22;2314;48.272;11.562;2022-09-27T13:20:50;11.30;99.90
4604;DHT22;2314;48.272;11.562;2022-09-27T13:26:45;12.00;99.90
4604;DHT22;2314;48.272;11.562;2022-09-27T13:29:30;12.30;99.90
4604;DHT22;2314;48.272;11.562;2022-09-27T13:32:18;12.20;99.90
4604;DHT22;2314;48.272;11.562;2022-09-27T13:34:48;12.00;99.90
4604;DHT22;2314;48.272;11.562;2022-09-27T13:40:32;12.60;99.90
4604;DHT22;2314;48.272;11.562;2022-09-27T13:46:16;12.60;99.90
4604;DHT22;2314;48.272;11.562;2022-09-27T13:48:49;12.50;99.90
4604;DHT22;2314;48.272;11.562;2022-09-27T13:51:30;12.30;99.90
4604;DHT22;2314;48.272;11.562;2022-09-27T13:54:03;12.30;99.90
4604;DHT22;2314;48.272;11.562;2022-09-27T13:56:52;12.50;99.90
4604;DHT22;2314;48.272;11.562;2022-09-27T13:59:25;12.70;99.90
4604;DHT22;2314;48.272;11.562;2022-09-27T14:02:13;12.60;99.90
4604;DHT22;2314;48.272;11.562;2022-09-27T14:04:47;12.60;99.90
4604;DHT22;2314;48.272;11.562;2022-09-27T14:07:17;12.60;99.90
4604;DHT22;2314;48.272;11.562;2022-09-27T14:09:51;12.60;99.90
4604;DHT22;2314;48.272;11.562;2022-09-27T14:12:30;12.30;99.90
4604;DHT22;2314;48.272;11.562;2022-09-27T14:15:02;12.00;99.90
4604;DHT22;2314;48.272;11.562;2022-09-27T14:17:31;11.60;99.90
4604;DHT22;2314;48.272;11.562;2022-09-27T14:19:59;11.40;99.90
4604;DHT22;2314;48.272;11.562;2022-09-27T14:22:27;11.20;99.90
4604;DHT22;2314;48.272;11.562;2022-09-27T14:24:56;11.10;99.90
4604;DHT22;2314;48.272;11.562;2022-09-27T14:27:24;11.10;99.90
4604;DHT22;2314;48.272;11.562;2022-09-27T14:29:54;11.10;99.90
4604;DHT22;2314;48.272;11.562;2022-09-27T14:32:23;11.20;99.90
4604;DHT22;2314;48.272;11.562;2022-09-27T14:35:12;11.20;99.90
4604;DHT22;2314;48.272;11.562;2022-09-27T14:37:58;11.10;99.90
4604;DHT22;2314;48.272;11.562;2022-09-27T14:40:27;11.10;99.90
4604;DHT22;2314;48.272;11.562;2022-09-27T14:42:55;11.00;99.90
4604;DHT22;2314;48.272;11.562;2022-09-27T14:45:32;11.00;99.90
4604;DHT22;2314;48.272;11.562;2022-09-27T14:48:04;11.10;99.90
4604;DHT22;2314;48.272;11.562;2022-09-27T14:50:54;11.10;99.90
4604;DHT22;2314;48.272;11.562;2022-09-27T14:53:27;11.00;99.90
4604;DHT22;2314;48.272;11.562;2022-09-27T14:55:56;10.90;99.90
4604;DHT22;2314;48.272;11.562;2022-09-27T14:58:23;10.90;99.90
4604;DHT22;2314;48.272;11.562;2022-09-27T15:00:51;10.80;99.90
4604;DHT22;2314;48.272;11.562;2022-09-27T15:03:27;10.90;99.90
4604;DHT22;2314;48.272;11.562;2022-09-27T15:05:58;10.90;99.90
4604;DHT22;2314;48.272;11.562;2022-09-27T15:08:27;10.90;99.90
4604;DHT22;2314;48.272;11.562;2022-09-27T15:10:58;10.90;99.90
4604;DHT22;2314;48.272;11.562;2022-09-27T15:13:26;10.80;99.90
4604;DHT22;2314;48.272;11.562;2022-09-27T15:15:54;10.80;99.90
4604;DHT22;2314;48.272;11.562;2022-09-27T15:18:32;10.90;99.90
4604;DHT22;2314;48.272;11.562;2022-09-27T15:21:08;11.00;99.90
4604;DHT22;2314;48.272;11.562;2022-09-27T15:23:37;11.00;99.90
4604;DHT22;2314;48.272;11.562;2022-09-27T15:26:09;10.90;99.90
4604;DHT22;2314;48.272;11.562;2022-09-27T15:28:42;10.90;99.90
4604;DHT22;2314;48.272;11.562;2022-09-27T15:31:10;10.80;99.90
4604;DHT22;2314;48.272;11.562;2022-09-27T15:33:38;10.70;99.90
4604;DHT22;2314;48.272;11.562;2022-09-27T15:36:09;10.70;99.90
4604;DHT22;2314;48.272;11.562;2022-09-27T15:38:37;10.60;99.90
4604;DHT22;2314;48.272;11.562;2022-09-27T15:41:12;10.50;99.90
4604;DHT22;2314;48.272;11.562;2022-09-27T15:43:42;10.20;99.90
4604;DHT22;2314;48.272;11.562;2022-09-27T15:46:34;10.00;99.90
4604;DHT22;2314;48.272;11.562;2022-09-27T15:49:27;9.90;99.90
4604;DHT22;2314;48.272;11.562;2022-09-27T15:52:01;9.70;99.90
4604;DHT22;2314;48.272;11.562;2022-09-27T15:54:30;9.40;99.90
4604;DHT22;2314;48.272;11.562;2022-09-27T15:57:02;9.20;99.90
4604;DHT22;2314;48.272;11.562;2022-09-27T15:59:32;9.10;99.90
4604;DHT22;2314;48.272;11.562;2022-09-27T16:02:03;9.00;99.90
4604;DHT22;2314;48.272;11.562;2022-09-27T16:04:43;8.80;99.90
4604;DHT22;2314;48.272;11.562;2022-09-27T16:07:13;8.70;99.90
4604;DHT22;2314;48.272;11.562;2022-09-27T16:09:40;8.60;99.90
4604;DHT22;2314;48.272;11.562;2022-09-27T16:12:08;8.60;99.90
4604;DHT22;2314;48.272;11.562;2022-09-27T16:14:35;8.50;99.90
4604;DHT22;2314;48.272;11.562;2022-09-27T16:17:02;8.50;99.90
4604;DHT22;2314;48.272;11.562;2022-09-27T16:19:29;8.60;99.90
4604;DHT22;2314;48.272;11.562;2022-09-27T16:21:57;8.60;99.90
4604;DHT22;2314;48.272;11.562;2022-09-27T16:24:29;8.70;99.90
4604;DHT22;2314;48.272;11.562;2022-09-27T16:26:56;8.70;99.90
4604;DHT22;2314;48.272;11.562;2022-09-27T16:29:24;8.60;99.90
4604;DHT22;2314;48.272;11.562;2022-09-27T16:31:51;8.70;99.90
4604;DHT22;2314;48.272;11.562;2022-09-27T16:34:19;8.70;99.90
4604;DHT22;2314;48.272;11.562;2022-09-27T16:36:46;8.70;99.90
4604;DHT22;2314;48.272;11.562;2022-09-27T16:39:14;8.70;99.90
4604;DHT22;2314;48.272;11.562;2022-09-27T16:41:43;8.70;99.90
4604;DHT22;2314;48.272;11.562;2022-09-27T16:44:12;8.70;99.90
4604;DHT22;2314;48.272;11.562;2022-09-27T16:46:42;8.70;99.90
4604;DHT22;2314;48.272;11.562;2022-09-27T16:49:10;8.70;99.90